sensor_id;sensor_type;location;lat;lon;timestamp;temperature;humidity
71206;SHT31;58935;54.498;18.544;2023-04-03T00:01:09;2.61;63.69
71206;SHT31;58935;54.498;18.544;2023-04-03T00:03:35;2.60;62.63
71206;SHT31;58935;54.498;18.544;2023-04-03T00:06:02;2.60;62.78
71206;SHT31;58935;54.498;18.544;2023-04-03T00:08:28;2.60;63.12
71206;SHT31;58935;54.498;18.544;2023-04-03T00:10:56;2.62;64.33
71206;SHT31;58935;54.498;18.544;2023-04-03T00:13:22;2.62;64.11
71206;SHT31;58935;54.498;18.544;2023-04-03T00:15:48;2.60;63.16
71206;SHT31;58935;54.498;18.544;2023-04-03T00:18:14;2.61;63.40
71206;SHT31;58935;54.498;18.544;2023-04-03T00:20:40;2.61;63.22
71206;SHT31;58935;54.498;18.544;2023-04-03T00:23:05;2.61;63.58
71206;SHT31;58935;54.498;18.544;2023-04-03T00:25:31;2.60;63.08
71206;SHT31;58935;54.498;18.544;2023-04-03T00:27:57;2.58;62.34
71206;SHT31;58935;54.498;18.544;2023-04-03T00:30:22;2.56;61.64
71206;SHT31;58935;54.498;18.544;2023-04-03T00:32:48;2.54;61.00
71206;SHT31;58935;54.498;18.544;2023-04-03T00:35:15;2.51;61.55
71206;SHT31;58935;54.498;18.544;2023-04-03T00:37:42;2.49;61.91
71206;SHT31;58935;54.498;18.544;2023-04-03T00:40:08;2.48;60.72
71206;SHT31;58935;54.498;18.544;2023-04-03T00:42:36;2.47;60.77
71206;SHT31;58935;54.498;18.544;2023-04-03T00:47:55;2.46;61.26
71206;SHT31;58935;54.498;18.544;2023-04-03T00:50:21;2.44;61.29
71206;SHT31;58935;54.498;18.544;2023-04-03T00:52:47;2.43;61.95
71206;SHT31;58935;54.498;18.544;2023-04-03T00:55:14;2.42;61.01
71206;SHT31;58935;54.498;18.544;2023-04-03T00:57:40;2.40;59.29
71206;SHT31;58935;54.498;18.544;2023-04-03T01:00:08;2.38;60.52
71206;SHT31;58935;54.498;18.544;2023-04-03T01:02:36;2.37;60.61
71206;SHT31;58935;54.498;18.544;2023-04-03T01:05:02;2.39;60.89
71206;SHT31;58935;54.498;18.544;2023-04-03T01:07:30;2.39;60.28
71206;SHT31;58935;54.498;18.544;2023-04-03T01:09:57;2.38;59.47
71206;SHT31;58935;54.498;18.544;2023-04-03T01:12:27;2.37;59.77
71206;SHT31;58935;54.498;18.544;2023-04-03T01:14:56;2.37;59.47
71206;SHT31;58935;54.498;18.544;2023-04-03T01:25:33;2.37;58.98
71206;SHT31;58935;54.498;18.544;2023-04-03T01:27:59;2.36;58.26
71206;SHT31;58935;54.498;18.544;2023-04-03T01:30:26;2.34;56.82
71206;SHT31;58935;54.498;18.544;2023-04-03T01:32:56;2.33;58.65
71206;SHT31;58935;54.498;18.544;2023-04-03T01:35:22;2.34;58.50
71206;SHT31;58935;54.498;18.544;2023-04-03T01:37:48;2.34;58.61
71206;SHT31;58935;54.498;18.544;2023-04-03T01:40:13;2.33;58.86
71206;SHT31;58935;54.498;18.544;2023-04-03T01:42:39;2.32;58.62
71206;SHT31;58935;54.498;18.544;2023-04-03T01:45:04;2.32;59.49
71206;SHT31;58935;54.498;18.544;2023-04-03T01:47:30;2.32;59.37
71206;SHT31;58935;54.498;18.544;2023-04-03T01:49:56;2.33;59.54
71206;SHT31;58935;54.498;18.544;2023-04-03T01:52:21;2.33;60.03
71206;SHT31;58935;54.498;18.544;2023-04-03T01:54:47;2.35;59.66
71206;SHT31;58935;54.498;18.544;2023-04-03T01:57:12;2.34;58.43
71206;SHT31;58935;54.498;18.544;2023-04-03T01:59:40;2.34;56.67
71206;SHT31;58935;54.498;18.544;2023-04-03T02:02:06;2.35;56.69
71206;SHT31;58935;54.498;18.544;2023-04-03T02:04:31;2.35;57.64
71206;SHT31;58935;54.498;18.544;2023-04-03T02:06:56;2.35;57.88
71206;SHT31;58935;54.498;18.544;2023-04-03T02:09:22;2.36;59.17
71206;SHT31;58935;54.498;18.544;2023-04-03T02:11:47;2.37;58.56
71206;SHT31;58935;54.498;18.544;2023-04-03T02:14:13;2.37;55.38
71206;SHT31;58935;54.498;18.544;2023-04-03T02:16:38;2.37;52.80
71206;SHT31;58935;54.498;18.544;2023-04-03T02:19:04;2.37;52.73
71206;SHT31;58935;54.498;18.544;2023-04-03T02:21:30;2.37;53.47
71206;SHT31;58935;54.498;18.544;2023-04-03T02:23:55;2.37;53.23
71206;SHT31;58935;54.498;18.544;2023-04-03T02:26:21;2.37;53.93
71206;SHT31;58935;54.498;18.544;2023-04-03T02:28:47;2.38;56.12
71206;SHT31;58935;54.498;18.544;2023-04-03T02:31:12;2.41;57.29
71206;SHT31;58935;54.498;18.544;2023-04-03T02:33:37;2.42;56.63
71206;SHT31;58935;54.498;18.544;2023-04-03T02:36:04;2.42;55.45
71206;SHT31;58935;54.498;18.544;2023-04-03T02:38:31;2.43;56.55
71206;SHT31;58935;54.498;18.544;2023-04-03T02:43:26;2.43;54.32
71206;SHT31;58935;54.498;18.544;2023-04-03T02:45:52;2.41;55.16
71206;SHT31;58935;54.498;18.544;2023-04-03T02:48:17;2.41;54.07
71206;SHT31;58935;54.498;18.544;2023-04-03T02:50:42;2.41;54.31
71206;SHT31;58935;54.498;18.544;2023-04-03T02:53:08;2.42;54.61
71206;SHT31;58935;54.498;18.544;2023-04-03T02:55:33;2.41;55.45
71206;SHT31;58935;54.498;18.544;2023-04-03T02:57:58;2.42;55.14
71206;SHT31;58935;54.498;18.544;2023-04-03T03:00:24;2.42;55.82
71206;SHT31;58935;54.498;18.544;2023-04-03T03:02:49;2.43;55.85
71206;SHT31;58935;54.498;18.544;2023-04-03T03:05:15;2.43;55.13
71206;SHT31;58935;54.498;18.544;2023-04-03T03:07:40;2.43;55.35
71206;SHT31;58935;54.498;18.544;2023-04-03T03:10:08;2.43;55.64
71206;SHT31;58935;54.498;18.544;2023-04-03T03:12:34;2.44;55.52
71206;SHT31;58935;54.498;18.544;2023-04-03T03:14:59;2.44;54.92
71206;SHT31;58935;54.498;18.544;2023-04-03T03:17:24;2.42;52.92
71206;SHT31;58935;54.498;18.544;2023-04-03T03:19:50;2.42;53.38
71206;SHT31;58935;54.498;18.544;2023-04-03T03:22:16;2.41;55.51
71206;SHT31;58935;54.498;18.544;2023-04-03T03:24:41;2.42;56.49
71206;SHT31;58935;54.498;18.544;2023-04-03T03:27:07;2.42;54.50
71206;SHT31;58935;54.498;18.544;2023-04-03T03:29:32;2.40;52.80
71206;SHT31;58935;54.498;18.544;2023-04-03T03:31:58;2.38;52.95
71206;SHT31;58935;54.498;18.544;2023-04-03T03:34:23;2.38;53.07
71206;SHT31;58935;54.498;18.544;2023-04-03T03:36:48;2.36;53.19
71206;SHT31;58935;54.498;18.544;2023-04-03T03:39:14;2.36;54.33
71206;SHT31;58935;54.498;18.544;2023-04-03T03:41:39;2.36;55.36
71206;SHT31;58935;54.498;18.544;2023-04-03T03:44:05;2.36;55.79
71206;SHT31;58935;54.498;18.544;2023-04-03T03:46:33;2.36;55.72
71206;SHT31;58935;54.498;18.544;2023-04-03T03:48:58;2.36;55.33
71206;SHT31;58935;54.498;18.544;2023-04-03T03:51:24;2.35;56.26
71206;SHT31;58935;54.498;18.544;2023-04-03T03:53:50;2.34;56.08
71206;SHT31;58935;54.498;18.544;2023-04-03T03:56:15;2.34;54.74
71206;SHT31;58935;54.498;18.544;2023-04-03T03:58:41;2.34;55.94
71206;SHT31;58935;54.498;18.544;2023-04-03T04:01:06;2.34;56.94
71206;SHT31;58935;54.498;18.544;2023-04-03T04:03:32;2.33;56.46
71206;SHT31;58935;54.498;18.544;2023-04-03T04:05:58;2.32;55.72
71206;SHT31;58935;54.498;18.544;2023-04-03T04:08:24;2.32;55.61
71206;SHT31;58935;54.498;18.544;2023-04-03T04:10:49;2.30;54.94
71206;SHT31;58935;54.498;18.544;2023-04-03T04:13:15;2.30;54.62
71206;SHT31;58935;54.498;18.544;2023-04-03T04:15:41;2.30;54.50
71206;SHT31;58935;54.498;18.544;2023-04-03T04:18:07;2.29;54.87
71206;SHT31;58935;54.498;18.544;2023-04-03T04:20:33;2.30;55.57
71206;SHT31;58935;54.498;18.544;2023-04-03T04:22:58;2.29;55.53
71206;SHT31;58935;54.498;18.544;2023-04-03T04:25:24;2.31;55.17
71206;SHT31;58935;54.498;18.544;2023-04-03T04:27:49;2.31;55.03
71206;SHT31;58935;54.498;18.544;2023-04-03T04:30:15;2.29;54.70
71206;SHT31;58935;54.498;18.544;2023-04-03T04:32:43;2.28;54.83
71206;SHT31;58935;54.498;18.544;2023-04-03T04:35:08;2.27;55.83
71206;SHT31;58935;54.498;18.544;2023-04-03T04:37:36;2.27;55.98
71206;SHT31;58935;54.498;18.544;2023-04-03T04:40:04;2.26;56.43
71206;SHT31;58935;54.498;18.544;2023-04-03T04:42:30;2.26;56.42
71206;SHT31;58935;54.498;18.544;2023-04-03T04:44:56;2.26;55.56
71206;SHT31;58935;54.498;18.544;2023-04-03T04:47:21;2.26;55.67
71206;SHT31;58935;54.498;18.544;2023-04-03T04:49:46;2.25;54.36
71206;SHT31;58935;54.498;18.544;2023-04-03T04:52:12;2.24;53.47
71206;SHT31;58935;54.498;18.544;2023-04-03T04:54:38;2.24;52.90
71206;SHT31;58935;54.498;18.544;2023-04-03T04:57:03;2.23;52.83
71206;SHT31;58935;54.498;18.544;2023-04-03T04:59:28;2.24;53.91
71206;SHT31;58935;54.498;18.544;2023-04-03T05:01:54;2.25;53.64
71206;SHT31;58935;54.498;18.544;2023-04-03T05:04:20;2.26;54.04
71206;SHT31;58935;54.498;18.544;2023-04-03T05:06:45;2.28;53.57
71206;SHT31;58935;54.498;18.544;2023-04-03T05:09:11;2.29;53.03
71206;SHT31;58935;54.498;18.544;2023-04-03T05:11:37;2.30;53.32
71206;SHT31;58935;54.498;18.544;2023-04-03T05:14:02;2.31;53.74
71206;SHT31;58935;54.498;18.544;2023-04-03T05:16:30;2.35;52.76
71206;SHT31;58935;54.498;18.544;2023-04-03T05:18:56;2.37;53.12
71206;SHT31;58935;54.498;18.544;2023-04-03T05:21:21;2.42;54.40
71206;SHT31;58935;54.498;18.544;2023-04-03T05:23:48;2.45;54.47
71206;SHT31;58935;54.498;18.544;2023-04-03T05:26:13;2.47;53.70
71206;SHT31;58935;54.498;18.544;2023-04-03T05:28:38;2.50;53.56
71206;SHT31;58935;54.498;18.544;2023-04-03T05:31:04;2.52;53.89
71206;SHT31;58935;54.498;18.544;2023-04-03T05:33:29;2.52;54.53
71206;SHT31;58935;54.498;18.544;2023-04-03T05:36:01;2.56;54.81
71206;SHT31;58935;54.498;18.544;2023-04-03T05:38:29;2.59;55.10
71206;SHT31;58935;54.498;18.544;2023-04-03T05:40:55;2.64;55.59
71206;SHT31;58935;54.498;18.544;2023-04-03T05:43:20;2.70;55.85
71206;SHT31;58935;54.498;18.544;2023-04-03T05:45:47;2.74;55.24
71206;SHT31;58935;54.498;18.544;2023-04-03T05:48:12;2.73;55.18
71206;SHT31;58935;54.498;18.544;2023-04-03T05:50:38;2.71;54.96
71206;SHT31;58935;54.498;18.544;2023-04-03T05:53:06;2.68;54.96
71206;SHT31;58935;54.498;18.544;2023-04-03T05:55:37;2.66;54.29
71206;SHT31;58935;54.498;18.544;2023-04-03T05:58:03;2.63;54.13
71206;SHT31;58935;54.498;18.544;2023-04-03T06:00:28;2.60;53.02
71206;SHT31;58935;54.498;18.544;2023-04-03T06:02:53;2.58;52.83
71206;SHT31;58935;54.498;18.544;2023-04-03T06:05:19;2.59;52.50
71206;SHT31;58935;54.498;18.544;2023-04-03T06:07:46;2.58;51.70
71206;SHT31;58935;54.498;18.544;2023-04-03T06:10:14;2.55;51.57
71206;SHT31;58935;54.498;18.544;2023-04-03T06:12:42;2.53;52.49
71206;SHT31;58935;54.498;18.544;2023-04-03T06:15:07;2.53;52.55
71206;SHT31;58935;54.498;18.544;2023-04-03T06:17:35;2.54;52.23
71206;SHT31;58935;54.498;18.544;2023-04-03T06:20:01;2.55;52.77
71206;SHT31;58935;54.498;18.544;2023-04-03T06:22:27;2.57;53.51
71206;SHT31;58935;54.498;18.544;2023-04-03T06:24:54;2.61;53.95
71206;SHT31;58935;54.498;18.544;2023-04-03T06:27:20;2.68;54.02
71206;SHT31;58935;54.498;18.544;2023-04-03T06:29:45;2.77;53.75
71206;SHT31;58935;54.498;18.544;2023-04-03T06:32:11;2.82;52.97
71206;SHT31;58935;54.498;18.544;2023-04-03T06:34:36;2.80;52.71
71206;SHT31;58935;54.498;18.544;2023-04-03T06:37:02;2.80;52.99
71206;SHT31;58935;54.498;18.544;2023-04-03T06:39:27;2.77;52.17
71206;SHT31;58935;54.498;18.544;2023-04-03T06:41:53;2.76;52.00
71206;SHT31;58935;54.498;18.544;2023-04-03T06:44:18;2.77;51.49
71206;SHT31;58935;54.498;18.544;2023-04-03T06:46:44;2.81;52.74
71206;SHT31;58935;54.498;18.544;2023-04-03T06:49:11;2.87;53.11
71206;SHT31;58935;54.498;18.544;2023-04-03T06:51:37;2.92;52.07
71206;SHT31;58935;54.498;18.544;2023-04-03T06:54:06;3.01;52.76
71206;SHT31;58935;54.498;18.544;2023-04-03T06:56:33;3.13;51.59
71206;SHT31;58935;54.498;18.544;2023-04-03T06:58:59;3.20;49.60
71206;SHT31;58935;54.498;18.544;2023-04-03T07:01:27;3.17;48.31
71206;SHT31;58935;54.498;18.544;2023-04-03T07:03:55;3.14;49.19
71206;SHT31;58935;54.498;18.544;2023-04-03T07:06:21;3.15;50.41
71206;SHT31;58935;54.498;18.544;2023-04-03T07:08:47;3.21;50.79
71206;SHT31;58935;54.498;18.544;2023-04-03T07:11:16;3.27;51.01
71206;SHT31;58935;54.498;18.544;2023-04-03T07:13:42;3.27;48.54
71206;SHT31;58935;54.498;18.544;2023-04-03T07:16:07;3.24;48.54
71206;SHT31;58935;54.498;18.544;2023-04-03T07:18:33;3.23;48.88
71206;SHT31;58935;54.498;18.544;2023-04-03T07:20:59;3.25;49.42
71206;SHT31;58935;54.498;18.544;2023-04-03T07:23:25;3.31;50.29
71206;SHT31;58935;54.498;18.544;2023-04-03T07:25:51;3.41;51.10
71206;SHT31;58935;54.498;18.544;2023-04-03T07:28:17;3.48;50.34
71206;SHT31;58935;54.498;18.544;2023-04-03T07:30:45;3.49;50.22
71206;SHT31;58935;54.498;18.544;2023-04-03T07:33:13;3.51;49.59
71206;SHT31;58935;54.498;18.544;2023-04-03T07:35:40;3.50;49.10
71206;SHT31;58935;54.498;18.544;2023-04-03T07:38:06;3.52;49.89
71206;SHT31;58935;54.498;18.544;2023-04-03T07:40:32;3.52;49.88
71206;SHT31;58935;54.498;18.544;2023-04-03T07:42:58;3.52;50.12
71206;SHT31;58935;54.498;18.544;2023-04-03T07:45:26;3.54;51.17
71206;SHT31;58935;54.498;18.544;2023-04-03T07:47:51;3.56;51.22
71206;SHT31;58935;54.498;18.544;2023-04-03T07:50:17;3.58;51.20
71206;SHT31;58935;54.498;18.544;2023-04-03T07:52:42;3.61;51.21
71206;SHT31;58935;54.498;18.544;2023-04-03T07:55:08;3.62;50.98
71206;SHT31;58935;54.498;18.544;2023-04-03T07:57:34;3.58;50.82
71206;SHT31;58935;54.498;18.544;2023-04-03T08:00:00;3.55;50.96
71206;SHT31;58935;54.498;18.544;2023-04-03T08:02:25;3.54;51.28
71206;SHT31;58935;54.498;18.544;2023-04-03T08:04:51;3.55;50.72
71206;SHT31;58935;54.498;18.544;2023-04-03T08:07:17;3.55;49.67
71206;SHT31;58935;54.498;18.544;2023-04-03T08:09:42;3.60;50.00
71206;SHT31;58935;54.498;18.544;2023-04-03T08:12:10;3.64;50.48
71206;SHT31;58935;54.498;18.544;2023-04-03T08:14:36;3.69;50.02
71206;SHT31;58935;54.498;18.544;2023-04-03T08:17:04;3.71;49.85
71206;SHT31;58935;54.498;18.544;2023-04-03T08:19:36;3.75;50.64
71206;SHT31;58935;54.498;18.544;2023-04-03T08:22:05;3.85;50.60
71206;SHT31;58935;54.498;18.544;2023-04-03T08:24:32;3.97;50.58
71206;SHT31;58935;54.498;18.544;2023-04-03T08:26:57;4.08;50.40
71206;SHT31;58935;54.498;18.544;2023-04-03T08:29:23;4.15;50.21
71206;SHT31;58935;54.498;18.544;2023-04-03T08:31:50;4.20;50.28
71206;SHT31;58935;54.498;18.544;2023-04-03T08:34:16;4.27;50.05
71206;SHT31;58935;54.498;18.544;2023-04-03T08:36:42;4.36;49.59
71206;SHT31;58935;54.498;18.544;2023-04-03T08:39:07;4.37;49.45
71206;SHT31;58935;54.498;18.544;2023-04-03T08:41:35;4.35;49.58
71206;SHT31;58935;54.498;18.544;2023-04-03T08:46:40;4.18;50.56
71206;SHT31;58935;54.498;18.544;2023-04-03T08:49:18;4.11;51.08
71206;SHT31;58935;54.498;18.544;2023-04-03T08:51:49;4.08;51.33
71206;SHT31;58935;54.498;18.544;2023-04-03T08:56:50;4.13;52.30
71206;SHT31;58935;54.498;18.544;2023-04-03T08:59:17;4.14;52.27
71206;SHT31;58935;54.498;18.544;2023-04-03T09:01:53;4.12;52.61
71206;SHT31;58935;54.498;18.544;2023-04-03T09:04:21;4.14;52.73
71206;SHT31;58935;54.498;18.544;2023-04-03T09:06:49;4.14;52.39
71206;SHT31;58935;54.498;18.544;2023-04-03T09:14:45;4.16;53.45
71206;SHT31;58935;54.498;18.544;2023-04-03T09:18:25;4.19;53.85
71206;SHT31;58935;54.498;18.544;2023-04-03T09:22:45;4.23;54.46
71206;SHT31;58935;54.498;18.544;2023-04-03T09:25:14;4.22;54.45
71206;SHT31;58935;54.498;18.544;2023-04-03T09:27:43;4.23;54.88
71206;SHT31;58935;54.498;18.544;2023-04-03T09:32:41;4.16;55.49
71206;SHT31;58935;54.498;18.544;2023-04-03T09:35:16;4.17;56.05
71206;SHT31;58935;54.498;18.544;2023-04-03T09:37:45;4.20;56.20
71206;SHT31;58935;54.498;18.544;2023-04-03T09:42:54;4.26;56.49
71206;SHT31;58935;54.498;18.544;2023-04-03T09:45:26;4.29;56.77
71206;SHT31;58935;54.498;18.544;2023-04-03T09:50:28;4.46;56.69
71206;SHT31;58935;54.498;18.544;2023-04-03T09:52:54;4.51;56.56
71206;SHT31;58935;54.498;18.544;2023-04-03T10:00:28;4.41;57.79
71206;SHT31;58935;54.498;18.544;2023-04-03T10:05:34;4.37;56.87
71206;SHT31;58935;54.498;18.544;2023-04-03T10:11:04;4.34;56.35
71206;SHT31;58935;54.498;18.544;2023-04-03T10:13:49;4.30;55.65
71206;SHT31;58935;54.498;18.544;2023-04-03T10:16:20;4.27;56.68
71206;SHT31;58935;54.498;18.544;2023-04-03T10:21:40;4.29;58.33
71206;SHT31;58935;54.498;18.544;2023-04-03T10:26:53;4.23;58.61
71206;SHT31;58935;54.498;18.544;2023-04-03T10:32:15;4.14;56.21
71206;SHT31;58935;54.498;18.544;2023-04-03T10:34:47;4.10;56.48
71206;SHT31;58935;54.498;18.544;2023-04-03T10:37:25;4.10;55.84
71206;SHT31;58935;54.498;18.544;2023-04-03T10:39:58;4.09;55.37
71206;SHT31;58935;54.498;18.544;2023-04-03T10:42:43;4.11;55.68
71206;SHT31;58935;54.498;18.544;2023-04-03T10:50:29;4.27;55.07
71206;SHT31;58935;54.498;18.544;2023-04-03T10:55:38;4.28;55.45
71206;SHT31;58935;54.498;18.544;2023-04-03T10:58:16;4.32;55.78
71206;SHT31;58935;54.498;18.544;2023-04-03T11:00:50;4.35;56.24
71206;SHT31;58935;54.498;18.544;2023-04-03T11:05:51;4.28;55.81
71206;SHT31;58935;54.498;18.544;2023-04-03T11:08:24;4.32;56.24
71206;SHT31;58935;54.498;18.544;2023-04-03T11:10:56;4.36;56.36
71206;SHT31;58935;54.498;18.544;2023-04-03T11:13:28;4.40;56.76
71206;SHT31;58935;54.498;18.544;2023-04-03T11:15:59;4.53;57.35
71206;SHT31;58935;54.498;18.544;2023-04-03T11:18:27;4.73;57.70
71206;SHT31;58935;54.498;18.544;2023-04-03T11:23:36;4.80;57.00
71206;SHT31;58935;54.498;18.544;2023-04-03T11:26:10;4.69;55.90
71206;SHT31;58935;54.498;18.544;2023-04-03T11:28:39;4.56;55.92
71206;SHT31;58935;54.498;18.544;2023-04-03T11:31:41;4.47;55.42
71206;SHT31;58935;54.498;18.544;2023-04-03T11:34:03;4.41;55.19
71206;SHT31;58935;54.498;18.544;2023-04-03T11:39:16;4.39;54.36
71206;SHT31;58935;54.498;18.544;2023-04-03T11:41:48;4.32;52.97
71206;SHT31;58935;54.498;18.544;2023-04-03T11:52:07;4.35;50.73
71206;SHT31;58935;54.498;18.544;2023-04-03T11:59:41;4.45;50.94
71206;SHT31;58935;54.498;18.544;2023-04-03T12:02:26;4.49;51.51
71206;SHT31;58935;54.498;18.544;2023-04-03T12:05:24;4.56;52.48
71206;SHT31;58935;54.498;18.544;2023-04-03T12:07:43;4.61;52.70
71206;SHT31;58935;54.498;18.544;2023-04-03T12:10:32;4.63;52.86
71206;SHT31;58935;54.498;18.544;2023-04-03T12:12:57;4.62;52.42
71206;SHT31;58935;54.498;18.544;2023-04-03T12:18:29;4.82;51.00
71206;SHT31;58935;54.498;18.544;2023-04-03T12:20:55;4.93;49.77
71206;SHT31;58935;54.498;18.544;2023-04-03T12:23:24;5.05;50.51
71206;SHT31;58935;54.498;18.544;2023-04-03T12:28:39;4.97;50.07
71206;SHT31;58935;54.498;18.544;2023-04-03T12:31:06;4.83;50.79
71206;SHT31;58935;54.498;18.544;2023-04-03T12:33:42;4.73;51.08
71206;SHT31;58935;54.498;18.544;2023-04-03T12:36:27;4.66;51.26
71206;SHT31;58935;54.498;18.544;2023-04-03T12:44:26;4.70;51.76
71206;SHT31;58935;54.498;18.544;2023-04-03T12:47:02;4.66;52.71
71206;SHT31;58935;54.498;18.544;2023-04-03T12:49:50;4.75;53.01
71206;SHT31;58935;54.498;18.544;2023-04-03T12:52:22;4.75;53.24
71206;SHT31;58935;54.498;18.544;2023-04-03T12:54:57;4.78;53.05
71206;SHT31;58935;54.498;18.544;2023-04-03T12:57:25;4.71;53.49
71206;SHT31;58935;54.498;18.544;2023-04-03T12:59:53;4.66;54.27
71206;SHT31;58935;54.498;18.544;2023-04-03T13:02:21;4.61;55.23
71206;SHT31;58935;54.498;18.544;2023-04-03T13:04:49;4.49;56.14
71206;SHT31;58935;54.498;18.544;2023-04-03T13:07:19;4.37;57.28
71206;SHT31;58935;54.498;18.544;2023-04-03T13:09:54;4.28;57.08
71206;SHT31;58935;54.498;18.544;2023-04-03T13:12:21;4.20;56.28
71206;SHT31;58935;54.498;18.544;2023-04-03T13:17:18;4.37;55.52
71206;SHT31;58935;54.498;18.544;2023-04-03T13:19:44;4.41;54.26
71206;SHT31;58935;54.498;18.544;2023-04-03T13:24:42;4.36;54.49
71206;SHT31;58935;54.498;18.544;2023-04-03T13:27:11;4.37;54.67
71206;SHT31;58935;54.498;18.544;2023-04-03T13:29:37;4.45;53.60
71206;SHT31;58935;54.498;18.544;2023-04-03T13:32:04;4.51;52.87
71206;SHT31;58935;54.498;18.544;2023-04-03T13:37:05;4.66;52.40
71206;SHT31;58935;54.498;18.544;2023-04-03T13:39:33;4.51;52.22
71206;SHT31;58935;54.498;18.544;2023-04-03T13:44:34;4.41;50.53
71206;SHT31;58935;54.498;18.544;2023-04-03T13:47:49;4.53;50.92
71206;SHT31;58935;54.498;18.544;2023-04-03T13:54:53;4.27;51.17
71206;SHT31;58935;54.498;18.544;2023-04-03T13:57:21;4.31;51.97
71206;SHT31;58935;54.498;18.544;2023-04-03T13:59:47;4.37;51.21
71206;SHT31;58935;54.498;18.544;2023-04-03T14:02:18;4.44;49.00
71206;SHT31;58935;54.498;18.544;2023-04-03T14:04:49;4.45;48.21
71206;SHT31;58935;54.498;18.544;2023-04-03T14:07:18;4.45;49.73
71206;SHT31;58935;54.498;18.544;2023-04-03T14:09:45;4.41;50.17
71206;SHT31;58935;54.498;18.544;2023-04-03T14:14:41;4.34;48.93
71206;SHT31;58935;54.498;18.544;2023-04-03T14:17:14;4.49;49.88
71206;SHT31;58935;54.498;18.544;2023-04-03T14:19:42;4.77;50.41
71206;SHT31;58935;54.498;18.544;2023-04-03T14:24:40;5.04;50.04
71206;SHT31;58935;54.498;18.544;2023-04-03T14:27:11;4.85;50.59
71206;SHT31;58935;54.498;18.544;2023-04-03T14:29:43;4.62;52.05
71206;SHT31;58935;54.498;18.544;2023-04-03T14:32:10;4.39;54.27
71206;SHT31;58935;54.498;18.544;2023-04-03T14:34:38;4.23;55.39
71206;SHT31;58935;54.498;18.544;2023-04-03T14:37:04;4.18;55.73
71206;SHT31;58935;54.498;18.544;2023-04-03T14:39:36;4.13;54.48
71206;SHT31;58935;54.498;18.544;2023-04-03T14:42:01;4.13;54.36
71206;SHT31;58935;54.498;18.544;2023-04-03T14:44:27;4.12;53.85
71206;SHT31;58935;54.498;18.544;2023-04-03T14:46:52;4.10;53.09
71206;SHT31;58935;54.498;18.544;2023-04-03T14:49:19;4.07;52.80
71206;SHT31;58935;54.498;18.544;2023-04-03T14:51:51;3.99;52.75
71206;SHT31;58935;54.498;18.544;2023-04-03T14:54:18;3.91;53.33
71206;SHT31;58935;54.498;18.544;2023-04-03T14:56:50;3.81;52.79
71206;SHT31;58935;54.498;18.544;2023-04-03T14:59:18;3.73;51.20
71206;SHT31;58935;54.498;18.544;2023-04-03T15:01:46;3.66;51.86
71206;SHT31;58935;54.498;18.544;2023-04-03T15:04:12;3.64;52.44
71206;SHT31;58935;54.498;18.544;2023-04-03T15:06:39;3.71;51.24
71206;SHT31;58935;54.498;18.544;2023-04-03T15:09:08;3.83;50.55
71206;SHT31;58935;54.498;18.544;2023-04-03T15:11:43;4.00;51.11
71206;SHT31;58935;54.498;18.544;2023-04-03T15:14:11;4.08;51.63
71206;SHT31;58935;54.498;18.544;2023-04-03T15:16:36;4.07;52.40
71206;SHT31;58935;54.498;18.544;2023-04-03T15:19:02;3.99;52.46
71206;SHT31;58935;54.498;18.544;2023-04-03T15:21:27;3.93;52.90
71206;SHT31;58935;54.498;18.544;2023-04-03T15:23:55;3.87;53.24
71206;SHT31;58935;54.498;18.544;2023-04-03T15:26:21;3.80;54.19
71206;SHT31;58935;54.498;18.544;2023-04-03T15:28:46;3.72;55.56
71206;SHT31;58935;54.498;18.544;2023-04-03T15:31:14;3.68;56.43
71206;SHT31;58935;54.498;18.544;2023-04-03T15:33:40;3.64;57.37
71206;SHT31;58935;54.498;18.544;2023-04-03T15:36:05;3.60;57.08
71206;SHT31;58935;54.498;18.544;2023-04-03T15:38:31;3.54;56.87
71206;SHT31;58935;54.498;18.544;2023-04-03T15:40:57;3.54;57.38
71206;SHT31;58935;54.498;18.544;2023-04-03T15:43:22;3.54;57.30
71206;SHT31;58935;54.498;18.544;2023-04-03T15:45:48;3.49;57.87
71206;SHT31;58935;54.498;18.544;2023-04-03T15:48:14;3.40;58.19
71206;SHT31;58935;54.498;18.544;2023-04-03T15:50:40;3.28;59.06
71206;SHT31;58935;54.498;18.544;2023-04-03T15:53:06;3.21;59.79
71206;SHT31;58935;54.498;18.544;2023-04-03T15:55:33;3.14;60.19
71206;SHT31;58935;54.498;18.544;2023-04-03T15:58:00;3.14;59.88
71206;SHT31;58935;54.498;18.544;2023-04-03T16:00:28;3.13;59.08
71206;SHT31;58935;54.498;18.544;2023-04-03T16:02:56;3.17;58.20
71206;SHT31;58935;54.498;18.544;2023-04-03T16:05:26;3.24;57.83
71206;SHT31;58935;54.498;18.544;2023-04-03T16:07:52;3.29;57.33
71206;SHT31;58935;54.498;18.544;2023-04-03T16:10:18;3.28;55.51
71206;SHT31;58935;54.498;18.544;2023-04-03T16:12:44;3.23;52.82
71206;SHT31;58935;54.498;18.544;2023-04-03T16:15:10;3.17;53.00
71206;SHT31;58935;54.498;18.544;2023-04-03T16:17:36;3.13;53.56
71206;SHT31;58935;54.498;18.544;2023-04-03T16:20:08;3.12;54.64
71206;SHT31;58935;54.498;18.544;2023-04-03T16:22:35;3.07;55.68
71206;SHT31;58935;54.498;18.544;2023-04-03T16:25:01;3.02;55.63
71206;SHT31;58935;54.498;18.544;2023-04-03T16:27:28;2.98;55.49
71206;SHT31;58935;54.498;18.544;2023-04-03T16:29:55;2.92;55.70
71206;SHT31;58935;54.498;18.544;2023-04-03T16:32:21;2.89;56.62
71206;SHT31;58935;54.498;18.544;2023-04-03T16:34:47;2.86;57.14
71206;SHT31;58935;54.498;18.544;2023-04-03T16:37:13;2.85;57.80
71206;SHT31;58935;54.498;18.544;2023-04-03T16:39:40;2.83;57.82
71206;SHT31;58935;54.498;18.544;2023-04-03T16:42:05;2.78;58.02
71206;SHT31;58935;54.498;18.544;2023-04-03T16:44:31;2.78;57.84
71206;SHT31;58935;54.498;18.544;2023-04-03T16:46:56;2.74;57.11
71206;SHT31;58935;54.498;18.544;2023-04-03T16:49:22;2.70;56.06
71206;SHT31;58935;54.498;18.544;2023-04-03T16:51:48;2.66;54.42
71206;SHT31;58935;54.498;18.544;2023-04-03T16:54:14;2.63;54.12
71206;SHT31;58935;54.498;18.544;2023-04-03T16:56:39;2.59;54.39
71206;SHT31;58935;54.498;18.544;2023-04-03T16:59:07;2.56;54.89
71206;SHT31;58935;54.498;18.544;2023-04-03T17:01:33;2.53;55.17
71206;SHT31;58935;54.498;18.544;2023-04-03T17:03:58;2.51;54.30
71206;SHT31;58935;54.498;18.544;2023-04-03T17:06:24;2.49;54.34
71206;SHT31;58935;54.498;18.544;2023-04-03T17:08:50;2.47;55.12
71206;SHT31;58935;54.498;18.544;2023-04-03T17:11:16;2.45;55.91
71206;SHT31;58935;54.498;18.544;2023-04-03T17:13:42;2.45;56.64
71206;SHT31;58935;54.498;18.544;2023-04-03T17:16:09;2.43;57.61
71206;SHT31;58935;54.498;18.544;2023-04-03T17:18:37;2.43;57.94
71206;SHT31;58935;54.498;18.544;2023-04-03T17:21:03;2.42;57.34
71206;SHT31;58935;54.498;18.544;2023-04-03T17:23:31;2.42;57.60
71206;SHT31;58935;54.498;18.544;2023-04-03T17:26:00;2.42;56.62